Time;durP1;ratioP1;P1;durP2;ratioP2;P2;SDS_P1;SDS_P2;PMS_P1;PMS_P2;Temp;Humidity;BMP_temperature;BMP_pressure;BME280_temperature;BME280_humidity;BME280_pressure;Samples;Min_cycle;Max_cycle;Signal;HPM_P1;HPM_P2
2023/10/31 00:01:11;;;;;;;0.17;0.17;;;10.90;99.90;;;;;;5052618;28;20190;-91
2023/10/31 00:03:36;;;;;;;0.10;0.10;;;11.00;99.90;;;;;;5052481;28;20210;-91
2023/10/31 00:06:02;;;;;;;0.10;0.10;;;10.90;99.90;;;;;;5053211;28;20171;-91
2023/10/31 00:08:27;;;;;;;0.10;0.10;;;10.90;99.90;;;;;;5052868;28;20190;-91
2023/10/31 00:10:53;;;;;;;0.10;0.10;;;10.90;99.90;;;;;;5034536;28;20192;-91
2023/10/31 00:13:18;;;;;;;0.20;0.20;;;10.90;99.90;;;;;;5053125;28;20747;-92
2023/10/31 00:15:44;;;;;;;0.20;0.20;;;10.90;99.90;;;;;;5052730;28;20182;-91
2023/10/31 00:18:09;;;;;;;0.20;0.20;;;10.90;99.90;;;;;;5052198;28;20178;-91
2023/10/31 00:20:35;;;;;;;0.20;0.20;;;10.90;99.90;;;;;;5039493;28;20211;-91
2023/10/31 00:23:00;;;;;;;0.10;0.10;;;10.90;99.90;;;;;;5050247;28;20214;-91
2023/10/31 00:25:26;;;;;;;0.10;0.10;;;10.90;99.90;;;;;;5053253;28;20277;-90
2023/10/31 00:27:51;;;;;;;0.13;0.13;;;10.90;99.90;;;;;;5052458;28;20266;-91
2023/10/31 00:30:17;;;;;;;0.10;0.10;;;10.90;99.90;;;;;;5054425;28;20208;-91
2023/10/31 00:32:43;;;;;;;0.10;0.10;;;10.90;99.90;;;;;;5072584;28;20185;-92
2023/10/31 00:35:08;;;;;;;0.10;0.10;;;10.90;99.90;;;;;;5053742;28;20309;-90
2023/10/31 00:37:34;;;;;;;0.10;0.10;;;10.90;99.90;;;;;;5052890;28;20942;-90
2023/10/31 00:39:59;;;;;;;0.20;0.20;;;10.90;99.90;;;;;;5053438;28;20164;-90
2023/10/31 00:42:25;;;;;;;0.10;0.10;;;11.00;99.90;;;;;;5054055;28;20222;-91
2023/10/31 00:44:50;;;;;;;0.20;0.20;;;10.90;99.90;;;;;;5051698;28;20248;-91
2023/10/31 00:47:17;;;;;;;0.20;0.20;;;10.90;99.90;;;;;;5051632;28;20203;-91
2023/10/31 00:49:43;;;;;;;0.17;0.17;;;10.90;99.90;;;;;;5043267;28;20191;-91
2023/10/31 00:52:08;;;;;;;0.20;0.20;;;10.90;99.90;;;;;;5058240;28;20447;-90
2023/10/31 00:54:34;;;;;;;0.17;0.17;;;10.80;99.90;;;;;;5055906;28;20198;-89
2023/10/31 00:56:59;;;;;;;0.20;0.20;;;10.80;99.90;;;;;;5055289;28;20179;-90
2023/10/31 00:59:25;;;;;;;0.20;0.20;;;10.80;99.90;;;;;;5052696;28;20209;-90
2023/10/31 01:01:50;;;;;;;0.10;0.10;;;10.90;99.90;;;;;;5038279;28;20190;-90
2023/10/31 01:04:16;;;;;;;0.20;0.20;;;10.80;99.90;;;;;;5035330;28;20227;-89
2023/10/31 01:06:42;;;;;;;0.20;0.20;;;10.80;99.90;;;;;;5055276;28;20261;-89
2023/10/31 01:09:09;;;;;;;0.10;0.10;;;10.80;99.90;;;;;;5054401;28;20233;-90
2023/10/31 01:11:34;;;;;;;0.10;0.10;;;10.80;99.90;;;;;;5054167;28;20421;-89
2023/10/31 01:14:00;;;;;;;0.10;0.10;;;10.90;99.90;;;;;;5054726;28;20801;-89
2023/10/31 01:16:25;;;;;;;0.20;0.20;;;10.90;99.90;;;;;;5055069;28;20246;-89
2023/10/31 01:18:51;;;;;;;0.20;0.20;;;10.90;99.90;;;;;;5054570;28;20537;-89
2023/10/31 01:21:16;;;;;;;0.17;0.17;;;10.80;99.90;;;;;;5061197;28;20145;-89
2023/10/31 01:23:42;;;;;;;0.20;0.20;;;10.90;99.90;;;;;;5054546;28;20238;-89
2023/10/31 01:26:07;;;;;;;0.10;0.10;;;10.90;99.90;;;;;;5063757;28;20596;-90
2023/10/31 01:28:33;;;;;;;0.20;0.20;;;10.90;99.90;;;;;;5059074;28;20214;-89
2023/10/31 01:30:58;;;;;;;0.20;0.20;;;10.80;99.90;;;;;;5066966;28;20185;-90
2023/10/31 01:33:24;;;;;;;0.20;0.20;;;10.90;99.90;;;;;;5074613;28;20036;-89
2023/10/31 01:35:50;;;;;;;0.20;0.20;;;10.90;99.90;;;;;;5074982;28;20224;-89
2023/10/31 01:38:15;;;;;;;0.20;0.20;;;10.90;99.90;;;;;;5072768;28;20955;-89
2023/10/31 01:40:41;;;;;;;0.20;0.20;;;10.90;99.90;;;;;;5054723;28;20191;-89
2023/10/31 01:43:06;;;;;;;0.20;0.20;;;10.90;99.90;;;;;;5052961;28;20187;-90
2023/10/31 01:45:32;;;;;;;0.10;0.10;;;10.90;99.90;;;;;;5036999;28;20236;-89
2023/10/31 01:47:58;;;;;;;0.10;0.10;;;10.90;99.90;;;;;;5054570;28;20186;-89
2023/10/31 01:50:24;;;;;;;0.20;0.20;;;10.90;99.90;;;;;;5054267;28;20192;-89
2023/10/31 01:52:52;;;;;;;0.10;0.10;;;10.90;99.90;;;;;;5054853;28;20416;-89
2023/10/31 01:55:18;;;;;;;0.10;0.10;;;10.90;99.90;;;;;;5054584;28;20480;-90
2023/10/31 01:57:46;;;;;;;0.20;0.20;;;10.90;99.90;;;;;;5054323;28;20429;-90
2023/10/31 02:00:14;;;;;;;0.10;0.10;;;10.90;99.90;;;;;;5037420;28;20480;-90
2023/10/31 02:02:42;;;;;;;0.20;0.20;;;10.90;99.90;;;;;;5060926;28;20433;-89
2023/10/31 02:05:07;;;;;;;0.10;0.10;;;10.90;99.90;;;;;;5054149;28;20473;-89
2023/10/31 02:07:33;;;;;;;0.10;0.10;;;10.90;99.90;;;;;;5054573;28;20531;-89
2023/10/31 02:09:58;;;;;;;0.10;0.10;;;10.90;99.90;;;;;;5053690;28;20183;-90
2023/10/31 02:12:35;;;;;;;0.10;0.10;;;10.90;99.90;;;;;;5054235;28;20178;-89
2023/10/31 02:15:01;;;;;;;0.10;0.10;;;10.90;99.90;;;;;;5046673;28;20179;-89
2023/10/31 02:17:27;;;;;;;0.10;0.10;;;10.90;99.90;;;;;;5055419;28;20432;-90
2023/10/31 02:19:52;;;;;;;0.20;0.20;;;10.90;99.90;;;;;;5030223;28;20520;-89
2023/10/31 02:22:18;;;;;;;0.10;0.10;;;10.90;99.90;;;;;;5053641;28;20191;-89
2023/10/31 02:24:43;;;;;;;0.20;0.20;;;10.90;99.90;;;;;;5053410;28;20230;-89
2023/10/31 02:27:09;;;;;;;0.10;0.10;;;10.90;99.90;;;;;;5035978;28;20244;-89
2023/10/31 02:29:34;;;;;;;0.10;0.10;;;10.90;99.90;;;;;;5054419;28;20297;-90
2023/10/31 02:32:00;;;;;;;0.10;0.10;;;10.90;99.90;;;;;;5053030;28;20187;-90
2023/10/31 02:34:26;;;;;;;0.10;0.10;;;10.90;99.90;;;;;;5035951;28;20045;-90
2023/10/31 02:36:51;;;;;;;0.20;0.20;;;10.90;99.90;;;;;;5053671;28;20220;-89
2023/10/31 02:39:17;;;;;;;0.10;0.10;;;10.90;99.90;;;;;;5053804;28;20749;-90
2023/10/31 02:41:43;;;;;;;0.20;0.20;;;10.90;99.90;;;;;;5053972;28;20210;-90
2023/10/31 02:44:09;;;;;;;0.20;0.20;;;10.90;99.90;;;;;;5063060;28;20214;-90
2023/10/31 02:46:38;;;;;;;0.10;0.10;;;10.90;99.90;;;;;;5050515;28;20270;-90
2023/10/31 02:49:03;;;;;;;0.20;0.20;;;10.90;99.90;;;;;;5067608;28;20534;-90
2023/10/31 02:51:29;;;;;;;0.10;0.10;;;10.90;99.90;;;;;;5073698;28;20978;-89
2023/10/31 02:53:54;;;;;;;0.20;0.20;;;10.90;99.90;;;;;;5041566;28;20198;-89
2023/10/31 02:56:20;;;;;;;0.20;0.20;;;10.90;99.90;;;;;;5054618;28;20174;-90
2023/10/31 02:58:45;;;;;;;0.20;0.20;;;10.90;99.90;;;;;;5053649;28;20190;-89
2023/10/31 03:01:11;;;;;;;0.20;0.20;;;10.90;99.90;;;;;;5052781;28;20189;-90
2023/10/31 03:03:37;;;;;;;0.20;0.20;;;10.90;99.90;;;;;;5053338;28;20797;-90
2023/10/31 03:06:04;;;;;;;0.10;0.10;;;10.90;99.90;;;;;;5035736;28;20452;-90
2023/10/31 03:08:29;;;;;;;0.10;0.10;;;10.90;99.90;;;;;;5057333;28;20182;-90
2023/10/31 03:10:55;;;;;;;0.20;0.20;;;10.90;99.90;;;;;;5060365;28;20792;-91
2023/10/31 03:13:20;;;;;;;0.10;0.10;;;10.90;99.90;;;;;;5035747;28;20175;-89
2023/10/31 03:15:47;;;;;;;0.10;0.10;;;10.90;99.90;;;;;;5059645;28;20336;-91
2023/10/31 03:18:14;;;;;;;0.10;0.10;;;10.90;99.90;;;;;;5053490;28;20241;-90
2023/10/31 03:20:40;;;;;;;0.20;0.20;;;10.90;99.90;;;;;;5057194;28;20437;-91
2023/10/31 03:23:05;;;;;;;0.20;0.20;;;10.90;99.90;;;;;;5060059;28;20795;-91
2023/10/31 03:25:31;;;;;;;0.10;0.10;;;10.90;99.90;;;;;;5054038;28;20157;-91
2023/10/31 03:27:56;;;;;;;0.10;0.10;;;10.90;99.90;;;;;;5053644;28;20183;-91
2023/10/31 03:30:22;;;;;;;0.10;0.10;;;10.90;99.90;;;;;;5030703;28;20282;-91
2023/10/31 03:32:47;;;;;;;0.10;0.10;;;10.90;99.90;;;;;;5053351;28;20207;-92
2023/10/31 03:35:13;;;;;;;0.20;0.20;;;10.80;99.90;;;;;;5054118;28;20226;-91
2023/10/31 03:37:41;;;;;;;0.10;0.10;;;10.90;99.90;;;;;;5053805;28;20186;-92
2023/10/31 03:40:09;;;;;;;0.20;0.20;;;10.90;99.90;;;;;;5054047;28;20224;-92
2023/10/31 03:42:34;;;;;;;0.10;0.10;;;10.90;99.90;;;;;;5067962;28;20425;-91
2023/10/31 03:45:00;;;;;;;0.10;0.10;;;10.90;99.90;;;;;;5057308;28;20571;-92
2023/10/31 03:47:25;;;;;;;0.10;0.10;;;10.90;99.90;;;;;;5053173;28;20285;-92
2023/10/31 03:49:51;;;;;;;0.10;0.10;;;10.90;99.90;;;;;;5054048;28;20183;-92
2023/10/31 03:52:16;;;;;;;0.10;0.10;;;10.90;99.90;;;;;;5053490;28;20270;-92
2023/10/31 03:54:42;;;;;;;0.20;0.20;;;10.90;99.90;;;;;;5053627;28;20175;-92
2023/10/31 03:57:07;;;;;;;0.20;0.20;;;10.90;99.90;;;;;;5060164;28;20265;-92
2023/10/31 03:59:33;;;;;;;0.20;0.20;;;10.90;99.90;;;;;;5040063;28;20965;-90
2023/10/31 04:01:58;;;;;;;0.10;0.10;;;10.90;99.90;;;;;;5055326;28;20700;-92
2023/10/31 04:04:24;;;;;;;0.13;0.13;;;10.90;99.90;;;;;;5073389;28;20206;-92
2023/10/31 04:06:49;;;;;;;0.20;0.20;;;10.90;99.90;;;;;;5073441;28;20557;-92
2023/10/31 04:09:15;;;;;;;0.20;0.20;;;10.90;99.90;;;;;;5061100;28;20186;-93
2023/10/31 04:11:41;;;;;;;0.20;0.20;;;10.90;99.90;;;;;;5036994;28;20316;-93
2023/10/31 04:14:06;;;;;;;0.20;0.20;;;10.90;99.90;;;;;;5052948;28;20262;-92
2023/10/31 04:16:37;;;;;;;0.10;0.10;;;10.90;99.90;;;;;;5058169;28;20453;-92
2023/10/31 04:19:02;;;;;;;0.20;0.20;;;10.90;99.90;;;;;;5052999;28;20512;-92
2023/10/31 04:21:28;;;;;;;0.10;0.10;;;10.90;99.90;;;;;;5035621;28;20480;-93
2023/10/31 04:23:53;;;;;;;0.10;0.10;;;10.90;99.90;;;;;;5034696;28;20226;-93
2023/10/31 04:26:19;;;;;;;0.10;0.10;;;10.90;99.90;;;;;;5036176;28;20231;-93
2023/10/31 04:28:44;;;;;;;0.10;0.10;;;10.90;99.90;;;;;;5053463;28;20214;-92
2023/10/31 04:31:09;;;;;;;0.10;0.10;;;10.90;99.90;;;;;;5038005;28;20190;-92
2023/10/31 04:33:35;;;;;;;0.20;0.20;;;10.90;99.90;;;;;;5053242;28;20171;-93
2023/10/31 04:36:02;;;;;;;0.20;0.20;;;10.90;99.90;;;;;;5060943;28;20705;-92
2023/10/31 04:38:27;;;;;;;0.10;0.10;;;10.90;99.90;;;;;;5073418;28;20327;-93
2023/10/31 04:40:53;;;;;;;0.10;0.10;;;10.90;99.90;;;;;;5060346;28;20501;-93
2023/10/31 04:43:18;;;;;;;0.10;0.10;;;10.90;99.90;;;;;;5053293;28;20231;-93
2023/10/31 04:45:44;;;;;;;0.10;0.10;;;10.90;99.90;;;;;;5035338;28;20198;-93
2023/10/31 04:48:09;;;;;;;0.10;0.10;;;10.90;99.90;;;;;;5053382;28;20195;-92
2023/10/31 04:50:35;;;;;;;0.10;0.10;;;10.90;99.90;;;;;;5053500;28;20182;-93
2023/10/31 04:53:00;;;;;;;0.10;0.10;;;10.90;99.90;;;;;;5052370;28;20189;-93
2023/10/31 04:55:26;;;;;;;0.10;0.10;;;10.90;99.90;;;;;;5050914;28;20190;-93
2023/10/31 04:57:51;;;;;;;0.10;0.10;;;10.90;99.90;;;;;;5053461;28;20189;-92
2023/10/31 05:00:17;;;;;;;0.10;0.10;;;10.90;99.90;;;;;;5053132;28;20175;-93
2023/10/31 05:02:42;;;;;;;0.10;0.10;;;10.90;99.90;;;;;;5052868;28;20221;-93
2023/10/31 05:05:08;;;;;;;0.10;0.10;;;10.90;99.90;;;;;;5053738;28;20236;-93
2023/10/31 05:07:33;;;;;;;0.10;0.10;;;10.90;99.90;;;;;;5035603;28;20258;-92
2023/10/31 05:09:59;;;;;;;0.10;0.10;;;10.90;99.90;;;;;;5053587;28;20171;-92
2023/10/31 05:12:25;;;;;;;0.10;0.10;;;10.90;99.90;;;;;;5033704;28;20266;-93
2023/10/31 05:14:50;;;;;;;0.10;0.10;;;10.90;99.90;;;;;;5022996;28;20639;-92
2023/10/31 05:17:16;;;;;;;0.20;0.20;;;10.90;99.90;;;;;;5051948;28;20193;-93
2023/10/31 05:19:41;;;;;;;0.10;0.10;;;10.90;99.90;;;;;;5050522;28;20195;-92
2023/10/31 05:22:07;;;;;;;0.13;0.13;;;10.90;99.90;;;;;;5051199;28;20183;-92
2023/10/31 05:24:32;;;;;;;0.10;0.10;;;10.90;99.90;;;;;;5039406;28;20215;-92
2023/10/31 05:26:58;;;;;;;0.10;0.10;;;10.90;99.90;;;;;;5051183;28;20323;-92
2023/10/31 05:29:23;;;;;;;0.10;0.10;;;10.90;99.90;;;;;;5050300;28;20191;-92
2023/10/31 05:31:49;;;;;;;0.20;0.20;;;10.90;99.90;;;;;;5065859;28;20572;-92
2023/10/31 05:34:14;;;;;;;0.10;0.10;;;10.90;99.90;;;;;;5053182;28;20199;-91
2023/10/31 05:36:40;;;;;;;0.10;0.10;;;10.90;99.90;;;;;;5055433;28;20191;-91
2023/10/31 05:39:05;;;;;;;0.10;0.10;;;10.90;99.90;;;;;;5053929;28;20187;-91
2023/10/31 05:41:34;;;;;;;0.10;0.10;;;10.90;99.90;;;;;;5053843;28;20183;-91
2023/10/31 05:43:59;;;;;;;0.20;0.20;;;10.90;99.90;;;;;;5054225;28;20289;-91
2023/10/31 05:46:26;;;;;;;0.10;0.10;;;10.90;99.90;;;;;;5054556;28;20992;-90
2023/10/31 05:48:52;;;;;;;0.10;0.10;;;10.90;99.90;;;;;;5055777;28;20199;-90
2023/10/31 05:51:18;;;;;;;0.20;0.20;;;10.90;99.90;;;;;;5041084;28;20941;-91
2023/10/31 05:53:46;;;;;;;0.10;0.10;;;10.90;99.90;;;;;;5034534;28;20615;-91
2023/10/31 05:56:13;;;;;;;0.10;0.10;;;10.90;99.90;;;;;;5055456;28;20428;-90
2023/10/31 05:58:40;;;;;;;0.10;0.10;;;10.90;99.90;;;;;;5059370;28;20491;-90
2023/10/31 06:01:07;;;;;;;0.10;0.10;;;10.90;99.90;;;;;;5058178;28;20448;-90
2023/10/31 06:03:32;;;;;;;0.10;0.10;;;10.90;99.90;;;;;;5055202;28;21012;-91
2023/10/31 06:05:58;;;;;;;0.10;0.10;;;10.90;99.90;;;;;;5053517;28;20529;-90
2023/10/31 06:08:28;;;;;;;0.10;0.10;;;10.90;99.90;;;;;;5032555;28;20193;-89
2023/10/31 06:10:55;;;;;;;0.10;0.10;;;10.90;99.90;;;;;;5054461;28;20167;-88
2023/10/31 06:13:21;;;;;;;0.10;0.10;;;10.90;99.90;;;;;;5053250;28;20841;-90
2023/10/31 06:15:46;;;;;;;0.20;0.20;;;10.90;99.90;;;;;;5035348;28;20461;-91
2023/10/31 06:18:12;;;;;;;0.10;0.10;;;10.90;99.90;;;;;;5054426;28;20452;-90
2023/10/31 06:20:39;;;;;;;0.10;0.10;;;10.90;99.90;;;;;;5058994;28;20672;-90
2023/10/31 06:23:05;;;;;;;0.10;0.10;;;10.90;99.90;;;;;;5066975;28;20417;-90
2023/10/31 06:25:30;;;;;;;;;;;10.90;99.90;;;;;;5034750;28;20302;-88
2023/10/31 06:27:56;;;;;;;;;;;10.90;99.90;;;;;;5039897;28;19987;-89
2023/10/31 06:30:21;;;;;;;;;;;10.90;99.90;;;;;;5057153;28;19909;-88
2023/10/31 06:32:47;;;;;;;;;;;10.90;99.90;;;;;;5063043;28;19923;-88
2023/10/31 06:35:12;;;;;;;;;;;10.90;99.90;;;;;;5052132;28;19916;-89
2023/10/31 06:37:38;;;;;;;;;;;10.90;99.90;;;;;;5054162;28;19913;-89
2023/10/31 06:40:04;;;;;;;;;;;10.90;99.90;;;;;;5055982;28;20428;-87
2023/10/31 06:42:30;;;;;;;;;;;10.90;99.90;;;;;;5049949;28;19912;-87
2023/10/31 06:44:55;;;;;;;;;;;10.90;99.90;;;;;;5048334;28;19927;-88
2023/10/31 06:47:20;;;;;;;;;;;10.90;99.90;;;;;;5052867;28;19995;-89
2023/10/31 06:49:46;;;;;;;;;;;10.90;99.90;;;;;;5048975;28;19916;-88
2023/10/31 06:52:11;;;;;;;;;;;11.00;99.90;;;;;;5053544;28;19905;-87
2023/10/31 06:54:37;;;;;;;;;;;11.00;99.90;;;;;;5053919;28;19911;-88
2023/10/31 06:57:02;;;;;;;;;;;11.00;99.90;;;;;;5035864;28;19905;-90
2023/10/31 06:59:29;;;;;;;;;;;10.90;99.90;;;;;;5053255;28;19908;-89
2023/10/31 07:01:54;;;;;;;;;;;11.00;99.90;;;;;;5048160;28;19909;-89
2023/10/31 07:04:20;;;;;;;;;;;11.00;99.90;;;;;;5052710;28;20399;-90
2023/10/31 07:06:45;;;;;;;;;;;10.90;99.90;;;;;;5043408;28;19913;-90
2023/10/31 07:09:10;;;;;;;;;;;11.00;99.90;;;;;;5046899;28;19911;-89
2023/10/31 07:11:36;;;;;;;;;;;11.00;99.90;;;;;;5053518;28;19947;-88
2023/10/31 07:14:04;;;;;;;;;;;11.00;99.90;;;;;;5035517;28;19906;-89
2023/10/31 07:16:31;;;;;;;;;;;11.00;99.90;;;;;;5054645;28;19912;-89
2023/10/31 07:18:57;;;;;;;;;;;11.00;99.90;;;;;;5059867;28;21755;-89
2023/10/31 07:21:22;;;;;;;;;;;11.00;99.90;;;;;;5034542;28;19912;-90
2023/10/31 07:23:48;;;;;;;;;;;11.00;99.90;;;;;;5051706;28;20520;-88
2023/10/31 07:26:13;;;;;;;;;;;11.00;99.90;;;;;;5050256;28;20349;-87
2023/10/31 07:28:38;;;;;;;;;;;11.00;99.90;;;;;;5049995;28;20452;-88
2023/10/31 07:31:04;;;;;;;;;;;11.00;99.90;;;;;;5034106;28;20361;-87
2023/10/31 07:33:30;;;;;;;;;;;11.00;99.90;;;;;;5051803;28;19912;-88
2023/10/31 07:35:55;;;;;;;;;;;11.00;99.90;;;;;;5049190;28;19924;-87
2023/10/31 07:38:21;;;;;;;;;;;11.00;99.90;;;;;;5051146;28;20376;-88
2023/10/31 07:40:47;;;;;;;;;;;11.00;99.90;;;;;;5033144;28;19990;-86
2023/10/31 07:43:13;;;;;;;;;;;11.00;99.90;;;;;;5049828;28;19920;-88
2023/10/31 07:45:38;;;;;;;;;;;11.00;99.90;;;;;;5050186;28;19917;-85
2023/10/31 07:48:04;;;;;;;;;;;11.00;99.90;;;;;;5049676;28;20006;-87
2023/10/31 07:50:29;;;;;;;;;;;11.00;99.90;;;;;;5051069;28;19959;-85
2023/10/31 07:52:55;;;;;;;;;;;11.00;99.90;;;;;;5047598;28;20289;-86
2023/10/31 07:55:20;;;;;;;;;;;11.00;99.90;;;;;;5051011;28;19909;-84
2023/10/31 07:57:46;;;;;;;;;;;11.10;99.90;;;;;;5049298;28;19935;-85
2023/10/31 08:00:11;;;;;;;;;;;11.10;99.90;;;;;;5028499;28;19920;-85
2023/10/31 08:02:37;;;;;;;;;;;11.10;99.90;;;;;;5046388;28;19967;-87
2023/10/31 08:05:02;;;;;;;;;;;11.10;99.90;;;;;;5050887;28;19917;-87
2023/10/31 08:07:30;;;;;;;;;;;11.10;99.90;;;;;;5041341;28;19908;-87
2023/10/31 08:09:55;;;;;;;;;;;11.00;99.90;;;;;;5057106;28;19924;-89
2023/10/31 08:12:21;;;;;;;;;;;10.90;99.90;;;;;;5051408;28;19913;-87
2023/10/31 08:14:46;;;;;;;;;;;10.80;99.90;;;;;;5052478;28;19909;-88
2023/10/31 08:17:12;;;;;;;;;;;10.70;99.90;;;;;;5050410;28;19912;-89
2023/10/31 08:19:37;;;;;;;;;;;10.70;99.90;;;;;;5032566;28;19920;-88
2023/10/31 08:22:03;;;;;;;;;;;10.80;99.90;;;;;;5029534;28;19915;-87
2023/10/31 08:24:28;;;;;;;;;;;10.70;99.90;;;;;;5049904;28;20003;-87
2023/10/31 08:26:53;;;;;;;;;;;10.60;99.90;;;;;;5054891;28;19916;-86
2023/10/31 08:29:19;;;;;;;;;;;10.60;99.90;;;;;;5050732;28;19939;-87
2023/10/31 08:31:44;;;;;;;0.10;0.10;;;10.50;99.90;;;;;;5052630;28;20214;-89
2023/10/31 08:34:10;;;;;;;0.20;0.20;;;10.50;99.90;;;;;;5050084;28;20186;-87
2023/10/31 08:36:35;;;;;;;0.20;0.20;;;10.50;99.90;;;;;;5049129;28;20305;-88
2023/10/31 08:39:01;;;;;;;0.20;0.20;;;10.50;99.90;;;;;;5049437;28;20278;-88
2023/10/31 08:41:26;;;;;;;0.20;0.20;;;10.50;99.90;;;;;;5050511;28;20186;-91
2023/10/31 08:43:52;;;;;;;0.10;0.10;;;10.40;99.90;;;;;;5050706;28;20667;-89
2023/10/31 08:46:18;;;;;;;0.20;0.20;;;10.40;99.90;;;;;;5050057;28;20187;-88
2023/10/31 08:48:43;;;;;;;0.20;0.20;;;10.30;99.90;;;;;;5034002;28;20186;-89
2023/10/31 08:51:09;;;;;;;0.20;0.20;;;10.40;99.90;;;;;;5050916;28;20205;-89
2023/10/31 08:53:34;;;;;;;0.20;0.20;;;10.40;99.90;;;;;;5049121;28;20809;-87
2023/10/31 08:56:00;;;;;;;0.20;0.20;;;10.30;99.90;;;;;;5048971;28;20190;-90
2023/10/31 08:58:25;;;;;;;0.20;0.20;;;10.30;99.90;;;;;;5051627;28;20276;-89
2023/10/31 09:00:51;;;;;;;0.20;0.20;;;10.40;99.90;;;;;;5054612;28;20182;-90
2023/10/31 09:03:16;;;;;;;0.20;0.20;;;10.40;99.90;;;;;;5052040;28;20336;-90
2023/10/31 09:05:42;;;;;;;0.10;0.10;;;10.40;99.90;;;;;;5033231;28;20194;-90
2023/10/31 09:08:08;;;;;;;0.20;0.20;;;10.40;99.90;;;;;;5045548;28;20201;-89
2023/10/31 09:10:37;;;;;;;0.20;0.20;;;10.50;99.90;;;;;;5058622;28;20460;-85
2023/10/31 09:13:03;;;;;;;0.20;0.20;;;10.50;99.90;;;;;;5034242;28;20684;-86
2023/10/31 09:15:28;;;;;;;0.20;0.20;;;10.50;99.90;;;;;;5053587;28;20432;-87
2023/10/31 09:17:54;;;;;;;0.10;0.10;;;10.40;99.90;;;;;;5053527;28;20256;-87
2023/10/31 09:20:20;;;;;;;0.20;0.20;;;10.30;99.90;;;;;;5054966;28;20190;-89
2023/10/31 09:22:45;;;;;;;0.10;0.10;;;10.20;99.90;;;;;;5046791;28;20202;-87
2023/10/31 09:25:11;;;;;;;0.20;0.20;;;10.20;99.90;;;;;;5057966;28;20229;-87
2023/10/31 09:27:39;;;;;;;0.20;0.20;;;10.10;99.90;;;;;;5057067;28;20183;-90
2023/10/31 09:30:06;;;;;;;0.20;0.20;;;10.00;99.90;;;;;;5053662;28;20216;-87
2023/10/31 09:32:31;;;;;;;0.20;0.20;;;10.00;99.90;;;;;;5055809;28;20452;-90
2023/10/31 09:34:57;;;;;;;0.20;0.20;;;9.70;99.90;;;;;;5055066;28;21104;-88
2023/10/31 09:37:23;;;;;;;0.20;0.20;;;9.80;99.90;;;;;;5055279;28;20202;-91
2023/10/31 09:39:48;;;;;;;0.20;0.20;;;9.70;99.90;;;;;;5058099;28;20475;-87
2023/10/31 09:42:14;;;;;;;0.20;0.20;;;9.80;99.90;;;;;;5037138;28;20224;-88
2023/10/31 09:44:40;;;;;;;0.20;0.20;;;9.80;99.90;;;;;;5054985;28;20547;-88
2023/10/31 09:47:06;;;;;;;0.20;0.20;;;9.70;99.90;;;;;;5058544;28;20549;-88
2023/10/31 09:49:32;;;;;;;0.20;0.20;;;9.70;99.90;;;;;;5053282;28;20195;-88
2023/10/31 09:51:59;;;;;;;0.20;0.20;;;9.60;99.90;;;;;;5058583;28;20915;-89
2023/10/31 09:54:25;;;;;;;0.30;0.30;;;9.50;99.90;;;;;;5045500;28;20519;-89
2023/10/31 09:56:51;;;;;;;0.20;0.20;;;9.50;99.90;;;;;;5048469;28;20947;-89
2023/10/31 09:59:17;;;;;;;0.30;0.30;;;9.40;99.90;;;;;;5052798;28;20447;-87
2023/10/31 10:01:43;;;;;;;0.20;0.20;;;9.40;99.90;;;;;;5035856;28;20228;-89
2023/10/31 10:04:09;;;;;;;0.20;0.20;;;9.40;99.90;;;;;;5062115;28;20240;-89
2023/10/31 10:06:35;;;;;;;0.20;0.20;;;9.40;99.90;;;;;;5051679;28;20741;-88
2023/10/31 10:09:05;;;;;;;0.20;0.20;;;9.30;99.90;;;;;;5039985;28;20429;-88
2023/10/31 10:11:33;;;;;;;0.20;0.20;;;9.40;99.90;;;;;;5054045;28;20187;-89
2023/10/31 10:13:59;;;;;;;0.20;0.20;;;9.40;99.90;;;;;;5051651;28;20436;-87
2023/10/31 10:16:32;;;;;;;0.20;0.20;;;9.40;99.90;;;;;;5050880;28;20438;-88
2023/10/31 10:19:13;;;;;;;0.20;0.20;;;9.30;99.90;;;;;;5055527;28;20262;-89
2023/10/31 10:21:53;;;;;;;0.20;0.20;;;9.20;99.90;;;;;;5050243;28;20432;-90
2023/10/31 10:24:20;;;;;;;0.20;0.20;;;9.20;99.90;;;;;;5034930;28;20514;-89
2023/10/31 10:26:47;;;;;;;0.20;0.20;;;9.10;99.90;;;;;;5034182;28;20433;-88
2023/10/31 10:29:13;;;;;;;0.20;0.20;;;9.10;99.90;;;;;;5056805;28;20770;-89
2023/10/31 10:31:39;;;;;;;0.20;0.20;;;9.10;99.90;;;;;;5056826;28;20631;-87
2023/10/31 10:34:04;;;;;;;0.20;0.20;;;9.20;99.90;;;;;;5059881;28;20206;-87
2023/10/31 10:36:32;;;;;;;0.20;0.20;;;9.10;99.90;;;;;;5052829;28;20546;-87
2023/10/31 10:38:59;;;;;;;0.20;0.20;;;9.20;99.90;;;;;;5053706;28;20213;-89
2023/10/31 10:41:26;;;;;;;0.20;0.20;;;9.20;99.90;;;;;;5035930;28;20437;-89
2023/10/31 10:43:56;;;;;;;0.20;0.20;;;9.10;99.90;;;;;;5057560;28;20506;-89
2023/10/31 10:46:25;;;;;;;0.20;0.20;;;9.20;99.90;;;;;;5057588;28;21056;-87
2023/10/31 10:48:58;;;;;;;0.20;0.20;;;9.20;99.90;;;;;;5052279;28;20429;-91
2023/10/31 10:51:43;;;;;;;0.20;0.20;;;9.00;99.90;;;;;;5055942;28;21000;-92
2023/10/31 10:54:15;;;;;;;0.20;0.20;;;9.00;99.90;;;;;;5055360;28;20508;-90
2023/10/31 10:56:46;;;;;;;0.20;0.20;;;9.00;99.90;;;;;;5056326;28;20434;-90
2023/10/31 10:59:20;;;;;;;0.20;0.20;;;8.90;99.90;;;;;;5047972;28;20415;-91
2023/10/31 11:01:47;;;;;;;0.20;0.20;;;8.90;99.90;;;;;;5059974;28;20429;-88
2023/10/31 11:04:13;;;;;;;0.20;0.20;;;8.80;99.90;;;;;;5053186;28;20472;-89
2023/10/31 11:06:39;;;;;;;0.20;0.20;;;8.90;99.90;;;;;;5056506;28;20597;-89
2023/10/31 11:09:06;;;;;;;0.20;0.20;;;8.80;99.90;;;;;;5055469;28;20440;-88
2023/10/31 11:11:32;;;;;;;0.20;0.20;;;8.70;99.90;;;;;;5059963;28;20427;-91
2023/10/31 11:14:01;;;;;;;0.20;0.20;;;8.70;99.90;;;;;;5058243;28;20540;-87
2023/10/31 11:16:44;;;;;;;0.20;0.20;;;8.60;99.90;;;;;;5054182;28;20425;-94
2023/10/31 11:19:10;;;;;;;0.20;0.20;;;8.60;99.90;;;;;;5051283;28;20436;-90
2023/10/31 11:21:35;;;;;;;0.20;0.20;;;8.60;99.90;;;;;;5067786;28;20461;-85
2023/10/31 11:24:01;;;;;;;0.20;0.20;;;8.70;99.90;;;;;;5054981;28;20466;-85
2023/10/31 11:26:29;;;;;;;0.20;0.20;;;8.70;99.90;;;;;;5055185;28;20213;-87
2023/10/31 11:29:05;;;;;;;0.20;0.20;;;8.80;99.90;;;;;;5059944;28;20412;-84
2023/10/31 11:31:33;;;;;;;0.20;0.20;;;8.50;99.90;;;;;;5047960;28;20969;-85
2023/10/31 11:34:01;;;;;;;0.20;0.20;;;8.60;99.90;;;;;;5051199;28;20419;-84
2023/10/31 11:36:29;;;;;;;0.20;0.20;;;8.70;99.90;;;;;;5062011;28;20501;-85
2023/10/31 11:39:12;;;;;;;0.20;0.20;;;8.60;99.90;;;;;;5045188;28;20479;-88
2023/10/31 11:41:39;;;;;;;0.20;0.20;;;8.40;99.90;;;;;;5058050;28;20908;-85
2023/10/31 11:44:05;;;;;;;0.20;0.20;;;8.40;99.90;;;;;;5061008;28;20453;-85
2023/10/31 11:46:31;;;;;;;0.20;0.20;;;8.50;99.90;;;;;;5050404;28;21031;-86
2023/10/31 11:48:57;;;;;;;0.20;0.20;;;8.40;99.90;;;;;;5035028;28;20181;-87
2023/10/31 11:51:23;;;;;;;0.20;0.20;;;8.40;99.90;;;;;;5032477;28;20190;-86
2023/10/31 11:53:49;;;;;;;0.20;0.20;;;8.30;99.90;;;;;;5050709;28;20473;-85
2023/10/31 11:56:15;;;;;;;0.20;0.20;;;8.40;99.90;;;;;;5052852;28;20202;-83
2023/10/31 11:58:41;;;;;;;0.20;0.20;;;8.50;99.90;;;;;;5048528;28;20437;-85
2023/10/31 12:01:08;;;;;;;0.20;0.20;;;8.50;99.90;;;;;;5052288;28;20425;-84
2023/10/31 12:03:52;;;;;;;0.20;0.20;;;8.50;99.90;;;;;;5053229;28;20189;-85
2023/10/31 12:06:20;;;;;;;0.20;0.20;;;8.30;99.90;;;;;;5050559;28;20463;-85
2023/10/31 12:08:47;;;;;;;0.20;0.20;;;8.40;99.90;;;;;;5048601;28;20437;-86
2023/10/31 12:11:20;;;;;;;0.10;0.10;;;8.30;99.90;;;;;;5052247;28;20440;-85
2023/10/31 12:14:04;;;;;;;0.20;0.20;;;8.30;99.90;;;;;;5033040;28;20936;-86
2023/10/31 12:16:31;;;;;;;0.20;0.20;;;8.40;99.90;;;;;;5051102;28;20520;-86
2023/10/31 12:19:06;;;;;;;0.20;0.20;;;8.30;99.90;;;;;;5051037;28;20433;-86
2023/10/31 12:21:43;;;;;;;0.20;0.20;;;8.30;99.90;;;;;;5062523;28;20443;-85
2023/10/31 12:24:13;;;;;;;0.20;0.20;;;8.20;99.90;;;;;;5047111;28;20516;-86
2023/10/31 12:26:40;;;;;;;0.20;0.20;;;8.20;99.90;;;;;;5035105;28;20488;-86
2023/10/31 12:29:19;;;;;;;0.30;0.30;;;8.20;99.90;;;;;;5070715;28;20473;-86
2023/10/31 12:31:51;;;;;;;0.30;0.30;;;8.30;99.90;;;;;;5050546;28;20433;-86
2023/10/31 12:34:19;;;;;;;0.30;0.30;;;8.30;99.90;;;;;;5061103;28;20481;-86
2023/10/31 12:36:47;;;;;;;0.30;0.30;;;8.10;99.90;;;;;;5068898;28;20439;-84
2023/10/31 12:39:14;;;;;;;0.20;0.20;;;8.30;99.90;;;;;;5040455;28;20955;-86
2023/10/31 12:41:41;;;;;;;0.30;0.30;;;8.30;99.90;;;;;;5054361;28;20444;-88
2023/10/31 12:44:16;;;;;;;0.20;0.20;;;8.20;99.90;;;;;;5050454;28;20567;-85
2023/10/31 12:46:42;;;;;;;0.20;0.20;;;8.10;99.90;;;;;;5063100;28;20477;-86
2023/10/31 12:49:13;;;;;;;0.20;0.20;;;8.00;99.90;;;;;;5042138;28;21036;-85
2023/10/31 12:51:38;;;;;;;0.20;0.20;;;7.80;99.90;;;;;;5054821;28;20417;-85
2023/10/31 12:54:04;;;;;;;0.20;0.20;;;7.80;99.90;;;;;;5039012;28;20445;-85
2023/10/31 12:56:42;;;;;;;0.20;0.20;;;7.90;99.90;;;;;;5061345;28;20262;-86
2023/10/31 12:59:09;;;;;;;0.20;0.20;;;7.90;99.90;;;;;;5051140;28;20530;-85